METAR Data
IDs: Format: Raw Decoded Include TAF

Data at: 1853 UTC 14 Dec 2018

KTRL 141753Z AUTO 33015G23KT 10SM OVC013 08/04 A2993 RMK AO2 PK WND 32026/1730 SLP135 60005 T00780044 10078 20072 50005
KTRL 141653Z AUTO 34014G21KT 10SM OVC012 07/04 A2995 RMK AO2 RAE44 SLP141 P0000 T00720044
KTRL 141612Z AUTO 33013G19KT 10SM -RA BKN014 OVC060 07/04 A2995 RMK AO2 P0000 T00720044
KTRL 141605Z AUTO 34013G23KT 10SM -RA BKN016 OVC060 07/04 A2995 RMK AO2 PRESRR P0000 T00720044
KTRL 141553Z AUTO 33014G24KT 9SM -RA BKN014 OVC060 07/04 A2993 RMK AO2 PK WND 33028/1456 SLP134 P0005 T00720044
KTRL 141453Z AUTO 34011G27KT 10SM -RA OVC014 07/04 A2992 RMK AO2 PK WND 35027/1447 RAB53 SLP130 P0000 60000 T00720039 53027
KTRL 141353Z AUTO 34014G21KT 10SM OVC011 07/04 A2989 RMK AO2 SLP120 T00720044
KTRL 141339Z AUTO 34012G23KT 10SM OVC010 07/04 A2989 RMK AO2 CIG 007V014 PRESRR T00720044
KTRL 141253Z AUTO 33012G22KT 4SM BR OVC009 07/05 A2986 RMK AO2 CIG 007V011 SLP109 T00720050
KTRL 141153Z AUTO 34012G20KT 10SM OVC008 08/06 A2984 RMK AO2 RAB15E40 CIG 007V012 SLP102 P0000 60000 70001 T00780056 10083 20072 51012
KTRL 141053Z AUTO 34009KT 5SM BR OVC006 08/06 A2983 RMK AO2 CIG 005V010 SLP099 T00780056
KTRL 140953Z AUTO 36008KT 5SM BR OVC008 08/06 A2983 RMK AO2 SLP098 T00780056
KTRL 140853Z AUTO 35010KT 10SM OVC009 08/06 A2980 RMK AO2 SLP088 T00830056 53006
KTRL 140821Z AUTO 34013G20KT 10SM OVC009 08/05 A2978 RMK AO2 T00830050
KTRL 140753Z AUTO 34009G16KT 10SM OVC010 08/05 A2978 RMK AO2 SLP081 T00830050
KTRL 140739Z AUTO 35013G17KT 10SM OVC010 08/05 A2978 RMK AO2 T00830050
KTRL 140700Z AUTO 36009G17KT 10SM OVC009 08/06 A2978 RMK AO2 T00780056
KTRL 140653Z AUTO 36009KT 10SM OVC010 08/06 A2978 RMK AO2 SLP082 T00830056
KTRL 140553Z AUTO 36014G20KT 10SM OVC011 08/05 A2978 RMK AO2 SLP082 T00830050 10117 20083 401830083 52004
KTRL 140453Z AUTO 36010KT 10SM OVC010 09/06 A2978 RMK AO2 SLP081 T00890061
KTRL 140353Z AUTO 34009KT 10SM OVC007 09/07 A2977 RMK AO2 SLP078 T00890067
KTRL 140253Z AUTO 34005KT 10SM OVC008 09/07 A2977 RMK AO2 SLP078 T00890067 51020
KTRL 140153Z AUTO 33009KT 10SM OVC008 09/07 A2975 RMK AO2 SLP072 T00940067
KTRL 140129Z AUTO 32011KT 10SM OVC009 09/07 A2975 RMK AO2 T00940067
KTRL 140053Z AUTO 32012KT 10SM OVC010 11/08 A2973 RMK AO2 SLP066 T01060078
KTRL 132353Z AUTO 28014KT 10SM BKN007 12/09 A2971 RMK AO2 WSHFT 2318 SLP058 60001 T01170094 10172 20117 53025
KTRL 132346Z AUTO 28012KT 10SM BKN007 BKN100 12/10 A2971 RMK AO2 WSHFT 2318 T01170100
KTRL 132332Z AUTO 28013G19KT 10SM FEW008 SCT014 BKN100 13/11 A2970 RMK AO2 WSHFT 2318 PRESRR T01280106
KTRL 132253Z AUTO 23008KT 10SM FEW055 BKN110 16/10 A2968 RMK AO2 SLP045 T01560100
KTRL 132153Z AUTO VRB05KT 10SM FEW008 BKN039 OVC049 17/15 A2965 RMK AO2 LTG DSNT N RAE20 SLP037 P0000 T01670150
KTRL 132111Z AUTO 16007KT 10SM -RA FEW008 BKN043 OVC070 17/15 A2964 RMK AO2 LTG DSNT SE AND NW P0000 T01670150
KTRL 132103Z AUTO 15009KT 9SM -RA BKN008 BKN040 OVC070 17/15 A2963 RMK AO2 LTG DSNT SE AND NW P0000 T01670150
KTRL 132053Z AUTO 16008KT 6SM VCTS -RA BR BKN007 OVC041 17/15 A2964 RMK AO2 LTG DSNT SE AND NW RAE02B21 TSB23E38 SLP031 P0001 60001 T01670150 55016
KTRL 132044Z AUTO 15009KT 10SM VCTS -RA OVC007 17/14 A2963 RMK AO2 LTG DSNT SE AND NW RAE02B21 TSB23E38 P0000 T01670144
KTRL 132029Z AUTO 14011KT 10SM -TSRA OVC007 17/14 A2963 RMK AO2 LTG DSNT W AND NW RAE02B21 TSB23 P0000 T01670144
KTRL 132018Z AUTO 14010KT 10SM VCTS OVC007 17/15 A2963 RMK AO2 LTG DSNT SW-NW RAE02 P0000 T01670150
KTRL 131953Z AUTO 13008KT 10SM -RA OVC009 17/14 A2963 RMK AO2 LTG DSNT SW-NW RAE15B53 CIG 007V011 SLP030 P0000 T01670144
KTRL 131853Z AUTO 14006KT 9SM -RA OVC011 17/14 A2966 RMK AO2 RAB04 SLP040 P0000 T01670144
KTRL 131753Z AUTO 13010KT 10SM OVC010 17/14 A2968 RMK AO2 SLP048 60000 T01720144 10183 20161 58016
KTRL 131653Z AUTO 14014KT 10SM OVC013 18/14 A2971 RMK AO2 SLP055 T01830144
KTRL 131553Z AUTO 15009KT 10SM BKN012 OVC019 17/15 A2972 RMK AO2 RAB17E29 SLP062 P0000 T01720150
KTRL 131537Z AUTO 16009KT 10SM BKN010 BKN013 OVC019 17/14 A2973 RMK AO2 LTG DSNT E RAB17E29 CIG 008V011 P0000 T01720144
KTRL 131505Z AUTO 18011KT 10SM OVC009 17/14 A2974 RMK AO2 T01670144
KTRL 131453Z AUTO 17011KT 10SM OVC010 17/14 A2973 RMK AO2 CIG 008V013 SLP064 T01670144 53009
KTRL 131423Z AUTO 17010KT 10SM OVC011 17/14 A2972 RMK AO2 T01670144
KTRL 131400Z AUTO 16009KT 10SM OVC009 17/14 A2972 RMK AO2 T01670144
KTRL 131353Z AUTO 16010KT 10SM OVC010 17/14 A2972 RMK AO2 SLP060 T01670144
KTRL 131344Z AUTO 16011KT 10SM OVC010 17/14 A2972 RMK AO2 T01670144
KTRL 131313Z AUTO 15010KT 10SM OVC009 16/14 A2971 RMK AO2 T01610139
KTRL 131253Z AUTO 16010KT 10SM BKN010 BKN020 OVC055 16/14 A2972 RMK AO2 CIG 009V015 SLP059 T01610139
KTRL 131219Z AUTO 17008KT 10SM OVC010 16/14 A2971 RMK AO2 CIG 009V014 T01610139
KTRL 131153Z AUTO 16010KT 10SM OVC009 16/14 A2970 RMK AO2 SLP055 60000 T01610139 10161 20156 55020
KTRL 131142Z AUTO 16009KT 10SM OVC009 16/14 A2970 RMK AO2 T01610139
KTRL 131053Z AUTO 16008KT 10SM OVC011 16/14 A2970 RMK AO2 SLP053 T01610139
KTRL 130953Z AUTO 15008KT 10SM OVC012 16/14 A2972 RMK AO2 RAB10E35 SLP061 P0000 T01610139
KTRL 130853Z AUTO 17009KT 10SM BKN013 BKN020 OVC026 16/14 A2977 RMK AO2 LTG DSNT N RAB23E34 SLP075 P0000 60000 T01610139 55008
KTRL 130845Z AUTO 17008KT 10SM SCT010 BKN017 OVC026 16/14 A2977 RMK AO2 LTG DSNT N RAB23E34 P0000 T01610139
KTRL 130811Z AUTO 20010KT 10SM BKN011 BKN110 16/14 A2978 RMK AO2 T01610144
KTRL 130753Z AUTO 16015KT 10SM BKN095 BKN120 16/14 A2976 RMK AO2 RAE53 SLP073 P0000 T01610139
KTRL 130716Z AUTO 15013KT 10SM -RA SCT018 OVC100 16/13 A2976 RMK AO2 P0000 T01560133
KTRL 130706Z AUTO 15012KT 10SM -RA SCT014 BKN021 OVC110 16/13 A2977 RMK AO2 PRESFR P0000 T01560133